sensor_id;sensor_type;location;lat;lon;timestamp;P1;P2;P0
65556;PMS3003;52200;53.490;14.376;2023-02-15T00:01:15;48.75;31.75;17.00
65556;PMS3003;52200;53.490;14.376;2023-02-15T00:03:40;65.25;48.00;23.75
65556;PMS3003;52200;53.490;14.376;2023-02-15T00:06:05;54.75;43.50;21.75
65556;PMS3003;52200;53.490;14.376;2023-02-15T00:08:31;53.50;42.75;22.75
65556;PMS3003;52200;53.490;14.376;2023-02-15T00:11:04;55.00;43.20;20.80
65556;PMS3003;52200;53.490;14.376;2023-02-15T00:13:30;56.40;43.80;23.00
65556;PMS3003;52200;53.490;14.376;2023-02-15T00:15:59;64.50;45.50;23.00
65556;PMS3003;52200;53.490;14.376;2023-02-15T00:18:26;64.00;49.80;25.20
65556;PMS3003;52200;53.490;14.376;2023-02-15T00:20:51;60.50;44.25;22.00
65556;PMS3003;52200;53.490;14.376;2023-02-15T00:23:16;68.00;48.50;24.00
65556;PMS3003;52200;53.490;14.376;2023-02-15T00:25:41;62.50;46.00;25.00
65556;PMS3003;52200;53.490;14.376;2023-02-15T00:28:07;57.00;42.50;24.00
65556;PMS3003;52200;53.490;14.376;2023-02-15T00:30:32;58.00;41.50;22.75
65556;PMS3003;52200;53.490;14.376;2023-02-15T00:32:57;54.50;45.50;25.50
65556;PMS3003;52200;53.490;14.376;2023-02-15T00:35:23;64.25;48.50;25.00
65556;PMS3003;52200;53.490;14.376;2023-02-15T00:37:48;73.25;50.75;28.00
65556;PMS3003;52200;53.490;14.376;2023-02-15T00:40:14;69.25;47.25;25.25
65556;PMS3003;52200;53.490;14.376;2023-02-15T00:42:39;68.25;48.75;29.00
65556;PMS3003;52200;53.490;14.376;2023-02-15T00:45:05;64.25;48.75;28.00
65556;PMS3003;52200;53.490;14.376;2023-02-15T00:47:30;71.00;52.00;25.75
65556;PMS3003;52200;53.490;14.376;2023-02-15T00:49:56;61.25;44.75;25.00
65556;PMS3003;52200;53.490;14.376;2023-02-15T00:52:21;69.75;50.00;26.25
65556;PMS3003;52200;53.490;14.376;2023-02-15T00:54:46;57.25;48.00;25.50
65556;PMS3003;52200;53.490;14.376;2023-02-15T00:57:11;67.00;48.25;26.75
65556;PMS3003;52200;53.490;14.376;2023-02-15T00:59:37;58.25;47.25;26.00
65556;PMS3003;52200;53.490;14.376;2023-02-15T01:02:02;62.75;48.75;26.75
65556;PMS3003;52200;53.490;14.376;2023-02-15T01:04:27;67.75;49.00;29.50
65556;PMS3003;52200;53.490;14.376;2023-02-15T01:06:53;67.50;49.75;30.25
65556;PMS3003;52200;53.490;14.376;2023-02-15T01:09:18;72.50;52.75;29.25
65556;PMS3003;52200;53.490;14.376;2023-02-15T01:11:43;78.75;58.25;32.25
65556;PMS3003;52200;53.490;14.376;2023-02-15T01:14:09;88.25;59.00;34.75
65556;PMS3003;52200;53.490;14.376;2023-02-15T01:16:34;88.00;64.00;34.75
65556;PMS3003;52200;53.490;14.376;2023-02-15T01:18:59;81.00;62.00;35.00
65556;PMS3003;52200;53.490;14.376;2023-02-15T01:21:27;88.00;61.60;34.80
65556;PMS3003;52200;53.490;14.376;2023-02-15T01:23:52;85.25;61.75;35.50
65556;PMS3003;52200;53.490;14.376;2023-02-15T01:26:18;91.25;62.50;35.00
65556;PMS3003;52200;53.490;14.376;2023-02-15T01:28:44;85.33;60.67;35.67
65556;PMS3003;52200;53.490;14.376;2023-02-15T01:31:19;78.40;60.00;35.00
65556;PMS3003;52200;53.490;14.376;2023-02-15T01:33:47;88.00;61.80;35.60
65556;PMS3003;52200;53.490;14.376;2023-02-15T01:36:14;84.80;59.80;34.80
65556;PMS3003;52200;53.490;14.376;2023-02-15T01:38:39;80.40;61.40;36.00
65556;PMS3003;52200;53.490;14.376;2023-02-15T01:41:05;80.00;56.75;35.00
65556;PMS3003;52200;53.490;14.376;2023-02-15T01:43:47;74.60;57.80;32.40
65556;PMS3003;52200;53.490;14.376;2023-02-15T01:46:27;81.20;55.60;31.80
65556;PMS3003;52200;53.490;14.376;2023-02-15T01:49:10;76.40;55.00;30.20
65556;PMS3003;52200;53.490;14.376;2023-02-15T01:51:40;84.80;59.80;31.60
65556;PMS3003;52200;53.490;14.376;2023-02-15T01:54:10;71.40;52.80;30.20
65556;PMS3003;52200;53.490;14.376;2023-02-15T01:56:41;75.20;51.20;29.80
65556;PMS3003;52200;53.490;14.376;2023-02-15T01:59:09;73.75;51.00;28.00
65556;PMS3003;52200;53.490;14.376;2023-02-15T02:01:39;72.40;51.80;26.80
65556;PMS3003;52200;53.490;14.376;2023-02-15T02:04:13;60.00;49.50;27.00
65556;PMS3003;52200;53.490;14.376;2023-02-15T02:06:46;64.80;51.40;24.80
65556;PMS3003;52200;53.490;14.376;2023-02-15T02:09:13;63.40;48.00;25.20
65556;PMS3003;52200;53.490;14.376;2023-02-15T02:11:39;74.00;51.50;26.50
65556;PMS3003;52200;53.490;14.376;2023-02-15T02:14:06;64.00;46.60;26.20
65556;PMS3003;52200;53.490;14.376;2023-02-15T02:22:22;64.80;47.20;23.80
65556;PMS3003;52200;53.490;14.376;2023-02-15T02:25:12;70.20;48.00;29.20
65556;PMS3003;52200;53.490;14.376;2023-02-15T02:38:42;70.20;47.60;26.00
65556;PMS3003;52200;53.490;14.376;2023-02-15T02:41:31;77.00;55.40;30.20
65556;PMS3003;52200;53.490;14.376;2023-02-15T02:44:25;73.60;55.40;29.80
65556;PMS3003;52200;53.490;14.376;2023-02-15T02:47:32;76.00;53.80;31.60
65556;PMS3003;52200;53.490;14.376;2023-02-15T02:50:05;76.00;53.00;30.20
65556;PMS3003;52200;53.490;14.376;2023-02-15T02:52:40;78.80;57.80;30.80
65556;PMS3003;52200;53.490;14.376;2023-02-15T02:55:10;79.80;56.40;32.60
65556;PMS3003;52200;53.490;14.376;2023-02-15T02:57:46;81.00;58.80;31.20
65556;PMS3003;52200;53.490;14.376;2023-02-15T03:00:18;81.20;58.20;32.40
65556;PMS3003;52200;53.490;14.376;2023-02-15T03:02:46;81.60;57.20;31.40
65556;PMS3003;52200;53.490;14.376;2023-02-15T03:05:19;83.00;58.80;33.80
65556;PMS3003;52200;53.490;14.376;2023-02-15T03:07:49;84.20;57.60;33.60
65556;PMS3003;52200;53.490;14.376;2023-02-15T03:10:18;82.80;60.00;33.80
65556;PMS3003;52200;53.490;14.376;2023-02-15T03:12:47;92.40;61.40;33.40
65556;PMS3003;52200;53.490;14.376;2023-02-15T03:15:23;84.50;63.25;38.00
65556;PMS3003;52200;53.490;14.376;2023-02-15T03:18:12;90.25;67.50;39.00
65556;PMS3003;52200;53.490;14.376;2023-02-15T03:20:38;92.50;69.50;39.75
65556;PMS3003;52200;53.490;14.376;2023-02-15T03:23:05;94.67;68.33;38.00
65556;PMS3003;52200;53.490;14.376;2023-02-15T03:25:41;104.25;75.75;42.00
65556;PMS3003;52200;53.490;14.376;2023-02-15T03:28:13;100.25;71.00;40.50
65556;PMS3003;52200;53.490;14.376;2023-02-15T03:31:04;103.75;72.00;41.50
65556;PMS3003;52200;53.490;14.376;2023-02-15T03:33:32;96.25;69.25;39.75
65556;PMS3003;52200;53.490;14.376;2023-02-15T03:36:11;93.50;65.50;40.50
65556;PMS3003;52200;53.490;14.376;2023-02-15T03:38:52;96.25;71.50;42.25
65556;PMS3003;52200;53.490;14.376;2023-02-15T03:41:24;98.75;70.50;43.00
65556;PMS3003;52200;53.490;14.376;2023-02-15T03:43:56;104.25;74.00;43.25
65556;PMS3003;52200;53.490;14.376;2023-02-15T03:46:42;100.75;74.50;42.50
65556;PMS3003;52200;53.490;14.376;2023-02-15T03:49:18;106.75;73.00;42.00
65556;PMS3003;52200;53.490;14.376;2023-02-15T03:51:50;103.50;75.50;43.00
65556;PMS3003;52200;53.490;14.376;2023-02-15T03:54:22;111.25;77.50;46.25
65556;PMS3003;52200;53.490;14.376;2023-02-15T03:57:22;99.25;72.75;42.25
65556;PMS3003;52200;53.490;14.376;2023-02-15T04:00:18;107.75;77.50;46.50
65556;PMS3003;52200;53.490;14.376;2023-02-15T04:03:12;102.75;76.50;44.75
65556;PMS3003;52200;53.490;14.376;2023-02-15T04:05:59;111.25;78.00;46.00
65556;PMS3003;52200;53.490;14.376;2023-02-15T04:08:26;107.00;77.00;45.50
65556;PMS3003;52200;53.490;14.376;2023-02-15T04:11:12;103.75;75.25;44.00
65556;PMS3003;52200;53.490;14.376;2023-02-15T04:13:37;105.33;76.67;46.00
65556;PMS3003;52200;53.490;14.376;2023-02-15T04:16:03;102.00;73.33;44.67
65556;PMS3003;52200;53.490;14.376;2023-02-15T04:18:32;102.67;73.00;42.00
65556;PMS3003;52200;53.490;14.376;2023-02-15T04:21:35;109.25;74.50;42.75
65556;PMS3003;52200;53.490;14.376;2023-02-15T04:24:19;104.50;77.50;44.00
65556;PMS3003;52200;53.490;14.376;2023-02-15T04:27:04;98.75;72.75;43.50
65556;PMS3003;52200;53.490;14.376;2023-02-15T04:29:30;107.25;74.75;42.50
65556;PMS3003;52200;53.490;14.376;2023-02-15T04:31:57;101.25;72.25;41.00
65556;PMS3003;52200;53.490;14.376;2023-02-15T04:34:24;101.25;70.75;41.75
65556;PMS3003;52200;53.490;14.376;2023-02-15T04:36:50;98.33;71.33;43.67
65556;PMS3003;52200;53.490;14.376;2023-02-15T04:39:16;107.00;77.00;43.33
65556;PMS3003;52200;53.490;14.376;2023-02-15T04:41:42;107.00;73.75;42.75
65556;PMS3003;52200;53.490;14.376;2023-02-15T04:44:08;106.00;76.33;43.00
65556;PMS3003;52200;53.490;14.376;2023-02-15T04:46:33;102.33;75.00;44.00
65556;PMS3003;52200;53.490;14.376;2023-02-15T04:48:59;98.67;72.00;43.67
65556;PMS3003;52200;53.490;14.376;2023-02-15T04:51:24;99.33;72.67;43.00
65556;PMS3003;52200;53.490;14.376;2023-02-15T04:53:49;105.33;72.67;44.33
65556;PMS3003;52200;53.490;14.376;2023-02-15T04:56:17;106.25;77.00;44.25
65556;PMS3003;52200;53.490;14.376;2023-02-15T04:58:42;107.33;76.33;45.00
65556;PMS3003;52200;53.490;14.376;2023-02-15T05:01:08;112.67;78.33;46.33
65556;PMS3003;52200;53.490;14.376;2023-02-15T05:03:33;107.67;77.33;44.67
65556;PMS3003;52200;53.490;14.376;2023-02-15T05:05:59;107.00;78.33;45.33
65556;PMS3003;52200;53.490;14.376;2023-02-15T05:08:24;112.33;79.33;44.00
65556;PMS3003;52200;53.490;14.376;2023-02-15T05:10:50;107.00;76.67;44.67
65556;PMS3003;52200;53.490;14.376;2023-02-15T05:13:15;105.33;76.00;44.00
65556;PMS3003;52200;53.490;14.376;2023-02-15T05:15:40;97.00;74.67;45.33
65556;PMS3003;52200;53.490;14.376;2023-02-15T05:18:06;104.67;75.00;44.33
65556;PMS3003;52200;53.490;14.376;2023-02-15T05:20:32;111.25;79.25;45.25
65556;PMS3003;52200;53.490;14.376;2023-02-15T05:22:57;105.33;75.00;42.67
65556;PMS3003;52200;53.490;14.376;2023-02-15T05:25:23;111.33;77.00;44.00
65556;PMS3003;52200;53.490;14.376;2023-02-15T05:28:10;107.25;77.00;43.75
65556;PMS3003;52200;53.490;14.376;2023-02-15T05:30:45;110.00;76.25;43.25
65556;PMS3003;52200;53.490;14.376;2023-02-15T05:33:30;109.50;71.50;43.00
65556;PMS3003;52200;53.490;14.376;2023-02-15T05:35:57;103.25;73.00;42.50
65556;PMS3003;52200;53.490;14.376;2023-02-15T05:38:22;112.33;79.33;45.00
65556;PMS3003;52200;53.490;14.376;2023-02-15T05:40:47;111.33;79.00;44.67
65556;PMS3003;52200;53.490;14.376;2023-02-15T05:43:13;103.33;76.00;43.33
65556;PMS3003;52200;53.490;14.376;2023-02-15T05:45:38;99.33;72.67;39.67
65556;PMS3003;52200;53.490;14.376;2023-02-15T05:48:03;98.33;73.00;41.00
65556;PMS3003;52200;53.490;14.376;2023-02-15T05:50:29;98.00;71.00;42.00
65556;PMS3003;52200;53.490;14.376;2023-02-15T05:52:54;96.00;70.33;40.67
65556;PMS3003;52200;53.490;14.376;2023-02-15T05:55:20;98.67;69.00;41.00
65556;PMS3003;52200;53.490;14.376;2023-02-15T05:57:45;96.67;69.67;41.00
65556;PMS3003;52200;53.490;14.376;2023-02-15T06:00:11;100.33;71.67;41.67
65556;PMS3003;52200;53.490;14.376;2023-02-15T06:02:37;102.75;75.00;43.50
65556;PMS3003;52200;53.490;14.376;2023-02-15T06:05:03;116.25;80.25;44.50
65556;PMS3003;52200;53.490;14.376;2023-02-15T06:07:29;103.75;74.00;44.00
65556;PMS3003;52200;53.490;14.376;2023-02-15T06:09:55;115.67;82.00;47.33
65556;PMS3003;52200;53.490;14.376;2023-02-15T06:12:20;118.67;82.00;46.00
65556;PMS3003;52200;53.490;14.376;2023-02-15T06:14:45;98.33;71.00;42.00
65556;PMS3003;52200;53.490;14.376;2023-02-15T06:17:11;95.33;71.67;41.33
65556;PMS3003;52200;53.490;14.376;2023-02-15T06:19:36;100.33;70.00;41.33
65556;PMS3003;52200;53.490;14.376;2023-02-15T06:22:01;102.33;70.33;39.67
65556;PMS3003;52200;53.490;14.376;2023-02-15T06:24:27;99.33;70.67;41.67
65556;PMS3003;52200;53.490;14.376;2023-02-15T06:26:52;98.00;71.00;42.00
65556;PMS3003;52200;53.490;14.376;2023-02-15T06:29:17;101.00;72.33;39.67
65556;PMS3003;52200;53.490;14.376;2023-02-15T06:31:43;94.00;70.67;41.33
65556;PMS3003;52200;53.490;14.376;2023-02-15T06:34:08;104.67;73.33;42.00
65556;PMS3003;52200;53.490;14.376;2023-02-15T06:36:33;100.33;70.33;40.33
65556;PMS3003;52200;53.490;14.376;2023-02-15T06:38:59;98.00;71.33;41.33
65556;PMS3003;52200;53.490;14.376;2023-02-15T06:41:24;96.00;69.67;42.00
65556;PMS3003;52200;53.490;14.376;2023-02-15T06:43:50;101.67;74.00;42.67
65556;PMS3003;52200;53.490;14.376;2023-02-15T06:46:15;152.00;119.50;57.75
65556;PMS3003;52200;53.490;14.376;2023-02-15T06:48:41;166.50;123.50;61.00
65556;PMS3003;52200;53.490;14.376;2023-02-15T06:51:06;154.00;111.50;57.50
65556;PMS3003;52200;53.490;14.376;2023-02-15T06:53:31;124.00;99.50;52.50
65556;PMS3003;52200;53.490;14.376;2023-02-15T06:56:04;123.75;94.75;52.25
65556;PMS3003;52200;53.490;14.376;2023-02-15T06:58:35;125.75;93.50;48.00
65556;PMS3003;52200;53.490;14.376;2023-02-15T07:01:01;116.50;83.50;47.50
65556;PMS3003;52200;53.490;14.376;2023-02-15T07:03:27;106.00;76.67;43.67
65556;PMS3003;52200;53.490;14.376;2023-02-15T07:05:55;108.00;77.67;43.67
65556;PMS3003;52200;53.490;14.376;2023-02-15T07:08:22;103.00;75.00;42.25
65556;PMS3003;52200;53.490;14.376;2023-02-15T07:10:51;104.25;73.25;43.00
65556;PMS3003;52200;53.490;14.376;2023-02-15T07:13:19;103.25;70.50;42.75
65556;PMS3003;52200;53.490;14.376;2023-02-15T07:15:45;99.50;72.00;43.75
65556;PMS3003;52200;53.490;14.376;2023-02-15T07:18:11;102.00;71.50;40.25
65556;PMS3003;52200;53.490;14.376;2023-02-15T07:20:37;103.67;76.00;43.00
65556;PMS3003;52200;53.490;14.376;2023-02-15T07:23:03;103.50;70.50;42.50
65556;PMS3003;52200;53.490;14.376;2023-02-15T07:25:30;104.00;74.50;43.00
65556;PMS3003;52200;53.490;14.376;2023-02-15T07:28:03;115.00;81.50;47.75
65556;PMS3003;52200;53.490;14.376;2023-02-15T07:30:29;116.25;85.75;48.50
65556;PMS3003;52200;53.490;14.376;2023-02-15T07:32:57;113.67;81.33;48.33
65556;PMS3003;52200;53.490;14.376;2023-02-15T07:35:55;112.00;81.00;47.25
65556;PMS3003;52200;53.490;14.376;2023-02-15T07:38:25;111.50;77.00;44.00
65556;PMS3003;52200;53.490;14.376;2023-02-15T07:40:51;109.00;80.75;46.75
65556;PMS3003;52200;53.490;14.376;2023-02-15T07:43:22;106.00;78.25;44.75
65556;PMS3003;52200;53.490;14.376;2023-02-15T07:45:47;99.00;74.00;43.00
65556;PMS3003;52200;53.490;14.376;2023-02-15T07:48:13;104.33;74.33;42.67
65556;PMS3003;52200;53.490;14.376;2023-02-15T07:50:38;109.67;75.67;44.00
65556;PMS3003;52200;53.490;14.376;2023-02-15T07:53:03;102.00;75.33;43.67
65556;PMS3003;52200;53.490;14.376;2023-02-15T07:55:29;109.67;77.67;45.00
65556;PMS3003;52200;53.490;14.376;2023-02-15T07:57:55;101.67;74.33;43.00
65556;PMS3003;52200;53.490;14.376;2023-02-15T08:00:21;105.67;76.67;43.00
65556;PMS3003;52200;53.490;14.376;2023-02-15T08:02:53;102.25;76.75;42.50
65556;PMS3003;52200;53.490;14.376;2023-02-15T08:05:38;102.00;75.00;42.50
65556;PMS3003;52200;53.490;14.376;2023-02-15T08:08:05;100.50;71.75;41.00
65556;PMS3003;52200;53.490;14.376;2023-02-15T08:10:32;101.75;71.75;42.75
65556;PMS3003;52200;53.490;14.376;2023-02-15T08:13:16;103.75;71.25;41.75
65556;PMS3003;52200;53.490;14.376;2023-02-15T08:15:47;104.33;73.33;41.00
65556;PMS3003;52200;53.490;14.376;2023-02-15T08:18:14;102.25;71.75;41.00
65556;PMS3003;52200;53.490;14.376;2023-02-15T08:20:39;98.67;72.33;41.00
65556;PMS3003;52200;53.490;14.376;2023-02-15T08:23:04;101.33;73.67;41.67
65556;PMS3003;52200;53.490;14.376;2023-02-15T08:25:30;94.67;70.00;41.00
65556;PMS3003;52200;53.490;14.376;2023-02-15T08:27:55;103.33;70.33;41.33
65556;PMS3003;52200;53.490;14.376;2023-02-15T08:30:20;97.00;70.00;42.00
65556;PMS3003;52200;53.490;14.376;2023-02-15T08:32:46;96.33;71.33;41.67
65556;PMS3003;52200;53.490;14.376;2023-02-15T08:35:11;97.00;71.67;42.00
65556;PMS3003;52200;53.490;14.376;2023-02-15T08:37:36;99.33;69.67;42.00
65556;PMS3003;52200;53.490;14.376;2023-02-15T08:40:02;98.67;70.33;41.00
65556;PMS3003;52200;53.490;14.376;2023-02-15T08:42:27;100.67;71.67;40.67
65556;PMS3003;52200;53.490;14.376;2023-02-15T08:44:53;93.00;65.67;38.67
65556;PMS3003;52200;53.490;14.376;2023-02-15T08:47:18;89.33;65.67;37.00
65556;PMS3003;52200;53.490;14.376;2023-02-15T08:49:43;94.33;65.00;40.00
65556;PMS3003;52200;53.490;14.376;2023-02-15T08:52:09;92.00;65.00;37.00
65556;PMS3003;52200;53.490;14.376;2023-02-15T08:54:34;95.00;70.67;38.33
65556;PMS3003;52200;53.490;14.376;2023-02-15T08:56:59;88.00;64.67;37.00
65556;PMS3003;52200;53.490;14.376;2023-02-15T08:59:25;84.33;65.00;38.00
65556;PMS3003;52200;53.490;14.376;2023-02-15T09:01:52;86.50;61.00;35.50
65556;PMS3003;52200;53.490;14.376;2023-02-15T09:04:19;90.00;66.50;36.75
65556;PMS3003;52200;53.490;14.376;2023-02-15T09:06:46;87.25;64.75;38.50
65556;PMS3003;52200;53.490;14.376;2023-02-15T09:09:12;91.00;65.00;36.25
65556;PMS3003;52200;53.490;14.376;2023-02-15T09:11:40;91.50;62.50;36.25
65556;PMS3003;52200;53.490;14.376;2023-02-15T09:14:09;87.25;63.00;36.00
65556;PMS3003;52200;53.490;14.376;2023-02-15T09:16:43;91.25;64.25;36.00
65556;PMS3003;52200;53.490;14.376;2023-02-15T09:19:11;84.25;60.00;36.00
65556;PMS3003;52200;53.490;14.376;2023-02-15T09:21:37;82.33;61.67;36.67
65556;PMS3003;52200;53.490;14.376;2023-02-15T09:24:04;86.50;63.50;37.25
65556;PMS3003;52200;53.490;14.376;2023-02-15T09:26:32;83.00;62.50;36.25
65556;PMS3003;52200;53.490;14.376;2023-02-15T09:29:00;82.75;61.25;35.75
65556;PMS3003;52200;53.490;14.376;2023-02-15T09:31:27;80.50;62.25;35.00
65556;PMS3003;52200;53.490;14.376;2023-02-15T09:33:54;83.75;61.25;36.00
65556;PMS3003;52200;53.490;14.376;2023-02-15T09:36:21;84.50;61.00;35.25
65556;PMS3003;52200;53.490;14.376;2023-02-15T09:44:03;82.00;60.00;34.25
65556;PMS3003;52200;53.490;14.376;2023-02-15T10:00:19;84.00;60.80;35.20
65556;PMS3003;52200;53.490;14.376;2023-02-15T10:05:54;88.50;63.75;34.75
65556;PMS3003;52200;53.490;14.376;2023-02-15T10:14:24;81.25;62.00;34.75
65556;PMS3003;52200;53.490;14.376;2023-02-15T10:27:45;81.25;61.50;37.00
65556;PMS3003;52200;53.490;14.376;2023-02-15T10:30:15;81.25;61.75;34.50
65556;PMS3003;52200;53.490;14.376;2023-02-15T10:43:25;80.25;58.00;34.25
65556;PMS3003;52200;53.490;14.376;2023-02-15T10:48:54;76.00;57.75;33.50
65556;PMS3003;52200;53.490;14.376;2023-02-15T10:57:16;79.75;59.00;34.50
65556;PMS3003;52200;53.490;14.376;2023-02-15T11:00:04;80.25;59.25;34.75
65556;PMS3003;52200;53.490;14.376;2023-02-15T11:05:46;80.00;56.75;32.50
65556;PMS3003;52200;53.490;14.376;2023-02-15T11:08:18;77.50;57.25;33.50
65556;PMS3003;52200;53.490;14.376;2023-02-15T11:13:32;80.00;60.25;33.00
65556;PMS3003;52200;53.490;14.376;2023-02-15T11:16:10;76.75;59.00;35.00
65556;PMS3003;52200;53.490;14.376;2023-02-15T11:18:53;76.00;58.50;35.25
65556;PMS3003;52200;53.490;14.376;2023-02-15T11:23:54;76.75;57.00;33.00
65556;PMS3003;52200;53.490;14.376;2023-02-15T11:26:32;75.50;55.25;33.25
65556;PMS3003;52200;53.490;14.376;2023-02-15T11:29:02;80.75;58.75;33.75
65556;PMS3003;52200;53.490;14.376;2023-02-15T11:31:43;77.00;58.00;33.00
65556;PMS3003;52200;53.490;14.376;2023-02-15T11:34:35;77.75;58.75;33.75
65556;PMS3003;52200;53.490;14.376;2023-02-15T11:38:27;78.50;58.50;34.00
65556;PMS3003;52200;53.490;14.376;2023-02-15T11:40:36;78.50;58.25;33.75
65556;PMS3003;52200;53.490;14.376;2023-02-15T11:43:21;84.75;61.75;34.00
65556;PMS3003;52200;53.490;14.376;2023-02-15T11:46:18;81.75;59.75;35.75
65556;PMS3003;52200;53.490;14.376;2023-02-15T11:48:45;87.25;62.00;35.75
65556;PMS3003;52200;53.490;14.376;2023-02-15T11:51:12;79.33;58.33;34.33
65556;PMS3003;52200;53.490;14.376;2023-02-15T11:53:41;83.50;60.25;34.75
65556;PMS3003;52200;53.490;14.376;2023-02-15T11:56:15;81.75;62.00;35.75
65556;PMS3003;52200;53.490;14.376;2023-02-15T11:58:59;83.00;62.75;36.00
65556;PMS3003;52200;53.490;14.376;2023-02-15T12:01:30;84.33;60.33;35.33
65556;PMS3003;52200;53.490;14.376;2023-02-15T12:03:59;84.50;61.50;36.00
65556;PMS3003;52200;53.490;14.376;2023-02-15T12:06:48;83.00;61.50;36.50
65556;PMS3003;52200;53.490;14.376;2023-02-15T12:12:19;84.25;61.50;36.25
65556;PMS3003;52200;53.490;14.376;2023-02-15T12:14:53;84.50;63.75;36.00
65556;PMS3003;52200;53.490;14.376;2023-02-15T12:17:21;85.75;61.50;35.75
65556;PMS3003;52200;53.490;14.376;2023-02-15T12:19:50;83.25;61.75;36.00
65556;PMS3003;52200;53.490;14.376;2023-02-15T12:22:38;84.00;60.00;35.25
65556;PMS3003;52200;53.490;14.376;2023-02-15T12:25:11;80.75;60.00;35.00
65556;PMS3003;52200;53.490;14.376;2023-02-15T12:27:47;79.00;61.00;34.75
65556;PMS3003;52200;53.490;14.376;2023-02-15T12:30:21;83.50;62.75;36.75
65556;PMS3003;52200;53.490;14.376;2023-02-15T12:35:41;89.25;62.50;35.25
65556;PMS3003;52200;53.490;14.376;2023-02-15T12:40:34;78.67;59.00;34.00
65556;PMS3003;52200;53.490;14.376;2023-02-15T12:43:00;83.50;62.25;35.50
65556;PMS3003;52200;53.490;14.376;2023-02-15T12:45:33;80.00;60.25;34.00
65556;PMS3003;52200;53.490;14.376;2023-02-15T12:48:14;79.25;58.25;35.00
65556;PMS3003;52200;53.490;14.376;2023-02-15T12:50:42;81.75;59.75;34.75
65556;PMS3003;52200;53.490;14.376;2023-02-15T12:53:14;79.25;61.25;35.25
65556;PMS3003;52200;53.490;14.376;2023-02-15T12:58:19;80.25;61.25;34.50
65556;PMS3003;52200;53.490;14.376;2023-02-15T13:00:48;87.75;63.50;35.00
65556;PMS3003;52200;53.490;14.376;2023-02-15T13:06:26;84.75;60.00;36.00
65556;PMS3003;52200;53.490;14.376;2023-02-15T13:08:54;79.25;60.25;35.75
65556;PMS3003;52200;53.490;14.376;2023-02-15T13:11:29;87.75;63.50;35.75
65556;PMS3003;52200;53.490;14.376;2023-02-15T13:14:00;88.25;64.00;35.25
65556;PMS3003;52200;53.490;14.376;2023-02-15T13:16:30;85.50;61.25;35.75
65556;PMS3003;52200;53.490;14.376;2023-02-15T13:18:58;84.00;61.75;34.75
65556;PMS3003;52200;53.490;14.376;2023-02-15T13:21:32;81.75;60.00;35.00
65556;PMS3003;52200;53.490;14.376;2023-02-15T13:24:05;88.75;64.00;35.00
65556;PMS3003;52200;53.490;14.376;2023-02-15T13:26:38;84.00;60.00;35.50
65556;PMS3003;52200;53.490;14.376;2023-02-15T13:29:12;83.25;63.75;36.50
65556;PMS3003;52200;53.490;14.376;2023-02-15T13:31:46;81.00;61.25;35.75
65556;PMS3003;52200;53.490;14.376;2023-02-15T13:39:55;79.75;59.25;34.75
65556;PMS3003;52200;53.490;14.376;2023-02-15T13:42:29;84.75;63.00;35.50
65556;PMS3003;52200;53.490;14.376;2023-02-15T13:47:43;92.25;65.00;36.25
65556;PMS3003;52200;53.490;14.376;2023-02-15T13:50:30;91.50;64.50;36.25
65556;PMS3003;52200;53.490;14.376;2023-02-15T13:56:29;85.25;62.75;36.00
65556;PMS3003;52200;53.490;14.376;2023-02-15T14:07:41;83.75;62.50;36.50
65556;PMS3003;52200;53.490;14.376;2023-02-15T14:15:50;89.00;65.00;36.75
65556;PMS3003;52200;53.490;14.376;2023-02-15T14:18:32;86.50;62.00;36.75
65556;PMS3003;52200;53.490;14.376;2023-02-15T14:29:38;91.00;63.50;36.00
65556;PMS3003;52200;53.490;14.376;2023-02-15T14:32:12;88.75;64.50;36.25
65556;PMS3003;52200;53.490;14.376;2023-02-15T14:34:57;87.50;65.50;36.25
65556;PMS3003;52200;53.490;14.376;2023-02-15T14:40:23;85.25;63.00;35.25
65556;PMS3003;52200;53.490;14.376;2023-02-15T14:43:19;85.25;61.00;36.00
65556;PMS3003;52200;53.490;14.376;2023-02-15T14:45:55;83.50;61.50;35.75
65556;PMS3003;52200;53.490;14.376;2023-02-15T14:48:32;83.50;63.75;35.50
65556;PMS3003;52200;53.490;14.376;2023-02-15T14:54:11;91.25;66.25;37.00
65556;PMS3003;52200;53.490;14.376;2023-02-15T14:59:26;88.25;63.50;36.75
65556;PMS3003;52200;53.490;14.376;2023-02-15T15:02:09;88.25;63.00;36.50
65556;PMS3003;52200;53.490;14.376;2023-02-15T15:04:38;89.00;65.00;37.25
65556;PMS3003;52200;53.490;14.376;2023-02-15T15:09:44;94.00;66.25;37.50
65556;PMS3003;52200;53.490;14.376;2023-02-15T15:14:48;92.50;65.00;36.25
65556;PMS3003;52200;53.490;14.376;2023-02-15T15:18:42;88.00;62.75;36.50
65556;PMS3003;52200;53.490;14.376;2023-02-15T15:20:38;86.00;63.50;36.50
65556;PMS3003;52200;53.490;14.376;2023-02-15T15:25:51;89.75;64.25;36.00
65556;PMS3003;52200;53.490;14.376;2023-02-15T15:33:42;90.67;67.00;35.33
65556;PMS3003;52200;53.490;14.376;2023-02-15T15:36:34;85.00;63.75;36.75
65556;PMS3003;52200;53.490;14.376;2023-02-15T15:39:20;84.50;61.25;34.75
65556;PMS3003;52200;53.490;14.376;2023-02-15T15:42:06;89.25;64.50;37.75
65556;PMS3003;52200;53.490;14.376;2023-02-15T15:47:47;86.25;65.00;37.00
65556;PMS3003;52200;53.490;14.376;2023-02-15T15:50:35;93.25;64.50;37.00
65556;PMS3003;52200;53.490;14.376;2023-02-15T15:53:05;86.75;61.75;35.25
65556;PMS3003;52200;53.490;14.376;2023-02-15T15:55:47;85.00;62.25;36.50
65556;PMS3003;52200;53.490;14.376;2023-02-15T15:58:15;87.00;64.25;35.50
65556;PMS3003;52200;53.490;14.376;2023-02-15T16:03:24;88.75;63.50;35.75
65556;PMS3003;52200;53.490;14.376;2023-02-15T16:05:51;90.00;64.50;37.25
65556;PMS3003;52200;53.490;14.376;2023-02-15T16:08:33;89.75;64.75;36.25
65556;PMS3003;52200;53.490;14.376;2023-02-15T16:11:19;91.50;63.25;37.00
65556;PMS3003;52200;53.490;14.376;2023-02-15T16:13:48;91.00;66.00;38.00
65556;PMS3003;52200;53.490;14.376;2023-02-15T16:16:22;96.25;68.50;37.75
65556;PMS3003;52200;53.490;14.376;2023-02-15T16:18:50;90.75;66.50;38.00
65556;PMS3003;52200;53.490;14.376;2023-02-15T16:21:18;94.75;66.75;37.50
65556;PMS3003;52200;53.490;14.376;2023-02-15T16:26:35;95.00;68.75;38.00
65556;PMS3003;52200;53.490;14.376;2023-02-15T16:29:30;97.25;68.00;37.00
65556;PMS3003;52200;53.490;14.376;2023-02-15T16:31:58;99.50;70.50;38.25
65556;PMS3003;52200;53.490;14.376;2023-02-15T16:34:27;96.75;69.50;38.00
65556;PMS3003;52200;53.490;14.376;2023-02-15T16:37:11;101.50;68.25;38.75